createdAt,value
2019-05-07T00:01:08.486Z,79.18
2019-05-07T00:03:36.562Z,78.81
2019-05-07T00:06:04.864Z,77.93
2019-05-07T00:08:33.026Z,76.83
2019-05-07T00:11:02.320Z,77.33
2019-05-07T00:13:30.620Z,77.70
2019-05-07T00:15:58.502Z,78.23
2019-05-07T00:18:26.080Z,78.98
2019-05-07T00:20:54.351Z,78.92
2019-05-07T00:23:23.196Z,79.28
2019-05-07T00:25:52.958Z,79.90
2019-05-07T00:28:23.042Z,79.49
2019-05-07T00:30:52.124Z,80.42
2019-05-07T00:33:22.707Z,80.72
2019-05-07T00:36:02.976Z,81.10
2019-05-07T00:38:33.486Z,81.38
2019-05-07T00:41:14.109Z,81.65
2019-05-07T00:43:43.380Z,81.82
2019-05-07T00:46:17.421Z,81.46
2019-05-07T00:48:45.476Z,81.93
2019-05-07T00:51:42.634Z,82.29
2019-05-07T00:54:12.280Z,82.54
2019-05-07T00:56:42.715Z,83.17
2019-05-07T00:59:12.910Z,82.83
2019-05-07T01:01:43.205Z,83.33
2019-05-07T01:04:11.996Z,83.79
2019-05-07T01:06:42.303Z,83.88
2019-05-07T01:09:12.315Z,83.65
2019-05-07T01:11:42.733Z,83.55
2019-05-07T01:14:12.389Z,83.33
2019-05-07T01:16:42.099Z,83.47
2019-05-07T01:19:12.579Z,83.45
2019-05-07T01:21:43.070Z,84.08
2019-05-07T01:24:12.406Z,84.02
2019-05-07T01:26:42.516Z,84.28
2019-05-07T01:29:10.151Z,84.39
2019-05-07T01:31:43.947Z,83.89
2019-05-07T01:34:27.417Z,84.25
2019-05-07T01:36:55.439Z,84.72
2019-05-07T01:39:23.454Z,85.07
2019-05-07T01:41:52.456Z,85.18
2019-05-07T01:44:22.150Z,85.12
2019-05-07T01:46:52.761Z,85.32
2019-05-07T01:49:20.588Z,85.41
2019-05-07T01:51:48.569Z,85.85
2019-05-07T01:54:16.749Z,85.85
2019-05-07T01:56:44.536Z,86.12
2019-05-07T01:59:12.434Z,85.84
2019-05-07T02:01:42.938Z,85.68
2019-05-07T02:04:32.777Z,85.81
2019-05-07T02:07:23.100Z,85.38
2019-05-07T02:09:58.668Z,85.73
2019-05-07T02:12:31.920Z,85.69
2019-05-07T02:14:59.911Z,86.26
2019-05-07T02:17:27.868Z,86.31
2019-05-07T02:19:55.968Z,86.34
2019-05-07T02:22:23.810Z,86.59
2019-05-07T02:24:52.480Z,86.02
2019-05-07T02:27:22.126Z,85.79
2019-05-07T02:29:52.401Z,86.58
2019-05-07T02:32:20.333Z,86.77
2019-05-07T02:34:48.271Z,86.46
2019-05-07T02:37:23.220Z,86.92
2019-05-07T02:39:58.292Z,86.74
2019-05-07T02:42:26.370Z,87.26
2019-05-07T02:45:13.318Z,87.07
2019-05-07T02:47:43.707Z,86.89
2019-05-07T02:50:19.151Z,87.57
2019-05-07T02:52:56.513Z,87.44
2019-05-07T02:55:35.104Z,88.04
2019-05-07T02:58:03.714Z,88.09
2019-05-07T03:00:33.383Z,87.78
2019-05-07T03:03:04.209Z,88.10
2019-05-07T03:05:34.578Z,88.02
2019-05-07T03:08:03.372Z,87.99
2019-05-07T03:10:33.972Z,87.59
2019-05-07T03:13:03.082Z,87.59
2019-05-07T03:15:33.170Z,88.14
2019-05-07T03:18:03.344Z,88.26
2019-05-07T03:20:38.096Z,88.51
2019-05-07T03:23:07.747Z,88.64
2019-05-07T03:26:13.651Z,88.55
2019-05-07T03:29:13.009Z,88.34
2019-05-07T03:31:56.414Z,88.23
2019-05-07T03:34:47.151Z,88.00
2019-05-07T03:37:17.630Z,87.94
2019-05-07T03:39:45.698Z,88.56
2019-05-07T03:42:13.844Z,88.53
2019-05-07T03:44:53.594Z,88.13
2019-05-07T03:47:27.360Z,88.30
2019-05-07T03:49:55.590Z,88.42
2019-05-07T03:52:24.522Z,88.22
2019-05-07T03:54:54.023Z,87.82
2019-05-07T03:57:23.776Z,88.43
2019-05-07T03:59:53.274Z,88.55
2019-05-07T04:02:24.023Z,88.32
2019-05-07T04:04:52.932Z,88.50
2019-05-07T04:07:23.299Z,87.67
2019-05-07T04:09:53.453Z,87.22
2019-05-07T04:12:23.480Z,87.03
2019-05-07T04:14:53.332Z,87.19
2019-05-07T04:17:25.734Z,87.52
2019-05-07T04:19:53.213Z,87.94
2019-05-07T04:22:26.388Z,88.08
2019-05-07T04:25:08.846Z,87.95
2019-05-07T04:27:47.088Z,87.93
2019-05-07T04:30:14.796Z,87.94
2019-05-07T04:32:47.765Z,88.23
2019-05-07T04:35:24.354Z,88.15
2019-05-07T04:37:53.311Z,87.95
2019-05-07T04:40:24.026Z,88.17
2019-05-07T04:42:53.851Z,87.70
2019-05-07T04:45:23.134Z,87.11
2019-05-07T04:47:53.832Z,86.48
2019-05-07T04:50:42.025Z,86.03
2019-05-07T04:52:56.089Z,86.26
2019-05-07T04:55:24.432Z,86.06
2019-05-07T04:57:53.379Z,85.04
2019-05-07T05:00:22.977Z,84.17
2019-05-07T05:03:13.564Z,83.27
2019-05-07T05:05:43.550Z,83.31
2019-05-07T05:08:13.390Z,83.31
2019-05-07T05:10:43.350Z,82.44
2019-05-07T05:13:12.972Z,82.22
2019-05-07T05:15:43.135Z,82.44
2019-05-07T05:18:12.752Z,82.26
2019-05-07T05:21:02.641Z,81.57
2019-05-07T05:23:42.448Z,81.24
2019-05-07T05:26:12.484Z,82.38
2019-05-07T05:28:41.902Z,81.99
2019-05-07T05:31:09.921Z,81.60
2019-05-07T05:33:37.825Z,82.08
2019-05-07T05:36:05.811Z,82.23
2019-05-07T05:38:33.853Z,82.40
2019-05-07T05:41:02.763Z,82.86
2019-05-07T05:43:39.069Z,83.05
2019-05-07T05:46:07.208Z,82.89
2019-05-07T05:48:35.182Z,83.17
2019-05-07T05:51:25.529Z,82.70
2019-05-07T05:53:57.836Z,83.38
2019-05-07T05:56:32.460Z,81.84
2019-05-07T05:59:37.051Z,81.56
2019-05-07T06:02:27.145Z,80.95
2019-05-07T06:05:05.374Z,79.85
2019-05-07T06:07:42.761Z,79.03
2019-05-07T06:10:42.512Z,79.30
2019-05-07T06:13:35.840Z,77.61
2019-05-07T06:16:13.403Z,76.58
2019-05-07T06:19:04.168Z,77.18
2019-05-07T06:21:52.678Z,76.46
2019-05-07T06:24:32.194Z,76.34
2019-05-07T06:27:00.235Z,76.57
2019-05-07T06:29:28.411Z,75.99
2019-05-07T06:32:02.833Z,75.96
2019-05-07T06:34:31.049Z,75.33
2019-05-07T06:36:59.330Z,74.96
2019-05-07T06:39:32.753Z,73.96
2019-05-07T06:42:18.818Z,72.98
2019-05-07T06:45:02.940Z,73.64
2019-05-07T06:47:32.428Z,71.27
2019-05-07T06:50:00.334Z,70.26
2019-05-07T06:52:28.459Z,69.67
2019-05-07T06:54:56.655Z,69.02
2019-05-07T06:57:26.468Z,68.32
2019-05-07T06:59:59.992Z,67.75
2019-05-07T07:02:35.303Z,65.05
2019-05-07T07:05:42.562Z,66.30
2019-05-07T07:08:32.407Z,63.21
2019-05-07T07:11:19.751Z,64.67
2019-05-07T07:13:47.767Z,64.19
2019-05-07T07:16:16.221Z,66.15
2019-05-07T07:18:51.906Z,61.94
2019-05-07T07:21:14.105Z,62.82
2019-05-07T07:23:42.995Z,59.08
2019-05-07T07:26:12.633Z,59.48
2019-05-07T07:28:42.796Z,57.14
2019-05-07T07:31:31.852Z,58.54
2019-05-07T07:34:02.343Z,54.96
2019-05-07T07:36:34.195Z,55.27
2019-05-07T07:39:03.535Z,53.32
2019-05-07T07:41:45.187Z,50.77
2019-05-07T07:44:13.475Z,50.68
2019-05-07T07:46:42.522Z,52.70
2019-05-07T07:49:14.550Z,52.84
2019-05-07T07:51:44.686Z,52.59
2019-05-07T07:54:10.313Z,51.65
2019-05-07T07:56:57.191Z,50.85
2019-05-07T07:59:44.770Z,50.85
2019-05-07T08:02:23.664Z,50.77
2019-05-07T08:04:52.752Z,52.90
2019-05-07T08:07:22.670Z,49.04
2019-05-07T08:09:52.044Z,47.68
2019-05-07T08:12:22.150Z,48.29
2019-05-07T08:14:51.890Z,47.41
2019-05-07T08:17:22.169Z,48.63
2019-05-07T08:19:51.980Z,46.58
2019-05-07T08:22:22.347Z,44.36
2019-05-07T08:24:51.894Z,46.71
2019-05-07T08:27:22.174Z,47.46
2019-05-07T08:29:52.293Z,47.49
2019-05-07T08:32:37.962Z,47.94
2019-05-07T08:35:28.591Z,49.08
2019-05-07T08:37:56.801Z,47.75
2019-05-07T08:40:24.804Z,49.51
2019-05-07T08:42:53.727Z,48.29
2019-05-07T08:45:39.742Z,47.00
2019-05-07T08:48:12.666Z,47.12
2019-05-07T08:50:41.920Z,47.45
2019-05-07T08:53:10.114Z,46.75
2019-05-07T08:55:38.017Z,46.89
2019-05-07T08:58:06.200Z,45.10
2019-05-07T09:00:34.190Z,44.96
2019-05-07T09:03:02.181Z,43.78
2019-05-07T09:05:32.197Z,42.03
2019-05-07T09:08:02.099Z,38.01
2019-05-07T09:10:32.309Z,34.99
2019-05-07T09:13:00.166Z,32.48
2019-05-07T09:15:28.271Z,34.77
2019-05-07T09:17:56.572Z,35.23
2019-05-07T09:20:24.540Z,36.41
2019-05-07T09:22:52.407Z,37.08
2019-05-07T09:25:22.142Z,36.76
2019-05-07T09:27:52.397Z,33.69
2019-05-07T09:30:29.969Z,29.54
2019-05-07T09:33:09.344Z,29.84
2019-05-07T09:35:42.371Z,28.08
2019-05-07T09:38:12.181Z,28.30
2019-05-07T09:40:42.133Z,30.36
2019-05-07T09:43:11.723Z,28.99
2019-05-07T09:45:42.027Z,28.87
2019-05-07T09:48:12.010Z,27.47
2019-05-07T09:50:42.716Z,26.53
2019-05-07T09:53:12.541Z,27.75
2019-05-07T09:55:42.368Z,25.37
2019-05-07T09:58:12.555Z,26.49
2019-05-07T10:00:42.453Z,26.42
2019-05-07T10:03:12.602Z,26.01
2019-05-07T10:05:42.794Z,25.97
2019-05-07T10:08:12.785Z,26.54
2019-05-07T10:10:41.692Z,27.22
2019-05-07T10:13:25.797Z,27.20
2019-05-07T10:15:53.908Z,26.09
2019-05-07T10:18:22.860Z,25.58
2019-05-07T10:20:52.167Z,25.30
2019-05-07T10:23:22.402Z,24.90
2019-05-07T10:25:52.018Z,24.78
2019-05-07T10:28:22.579Z,24.35
2019-05-07T10:30:52.127Z,23.75
2019-05-07T10:33:20.254Z,24.42
2019-05-07T10:35:48.555Z,23.74
2019-05-07T10:38:16.447Z,24.88
2019-05-07T10:40:44.687Z,24.75
2019-05-07T10:43:12.955Z,23.83
2019-05-07T10:46:07.213Z,22.28
2019-05-07T10:48:45.930Z,24.90
2019-05-07T10:51:14.255Z,24.86
2019-05-07T10:53:42.547Z,24.88
2019-05-07T10:56:11.827Z,24.30
2019-05-07T10:58:41.755Z,27.57
2019-05-07T11:01:12.025Z,29.34
2019-05-07T11:03:41.941Z,27.15
2019-05-07T11:06:11.877Z,25.76
2019-05-07T11:08:39.945Z,25.35
2019-05-07T11:11:07.851Z,23.26
2019-05-07T11:13:36.817Z,23.29
2019-05-07T11:16:08.521Z,26.21
2019-05-07T11:18:45.323Z,25.19
2019-05-07T11:21:13.595Z,26.99
2019-05-07T11:23:42.015Z,25.75
2019-05-07T11:26:11.774Z,25.59
2019-05-07T11:28:40.150Z,25.82
2019-05-07T11:31:08.028Z,25.14
2019-05-07T11:33:36.108Z,26.33
2019-05-07T11:36:04.565Z,25.24
2019-05-07T11:38:33.570Z,25.49
2019-05-07T11:41:02.289Z,26.59
2019-05-07T11:43:55.980Z,28.13
2019-05-07T11:46:44.404Z,25.69
2019-05-07T11:49:35.479Z,26.14
2019-05-07T11:52:08.001Z,24.03
2019-05-07T11:54:36.045Z,24.29
2019-05-07T11:57:04.096Z,23.77
2019-05-07T11:59:32.688Z,24.64
2019-05-07T12:02:02.609Z,26.30
2019-05-07T12:04:31.987Z,25.00
2019-05-07T12:07:02.432Z,24.64
2019-05-07T12:09:30.668Z,25.98
2019-05-07T12:11:58.690Z,27.89
2019-05-07T12:14:31.517Z,26.32
2019-05-07T12:16:56.716Z,24.36
2019-05-07T12:19:24.741Z,27.07
2019-05-07T12:21:52.852Z,27.65
2019-05-07T12:24:22.334Z,28.35
2019-05-07T12:26:52.285Z,27.99
2019-05-07T12:29:22.067Z,28.09
2019-05-07T12:31:58.800Z,26.18
2019-05-07T12:34:47.873Z,27.90
2019-05-07T12:37:16.106Z,30.64
2019-05-07T12:39:44.335Z,29.34
2019-05-07T12:42:12.416Z,29.52
2019-05-07T12:44:42.607Z,30.60
2019-05-07T12:47:12.079Z,31.69
2019-05-07T12:49:40.397Z,32.37
2019-05-07T12:52:22.771Z,31.68
2019-05-07T12:55:13.134Z,30.08
2019-05-07T12:57:42.077Z,29.22
2019-05-07T13:00:29.508Z,31.54
2019-05-07T13:03:26.119Z,31.19
2019-05-07T13:05:53.801Z,29.60
2019-05-07T13:08:23.061Z,29.87
2019-05-07T13:10:52.460Z,30.19
2019-05-07T13:13:20.638Z,29.80
2019-05-07T13:15:48.893Z,33.12
2019-05-07T13:18:16.585Z,32.74
2019-05-07T13:20:44.543Z,30.62
2019-05-07T13:23:12.829Z,32.89
2019-05-07T13:25:42.784Z,32.78
2019-05-07T13:28:11.880Z,30.38
2019-05-07T13:30:43.603Z,32.38
2019-05-07T13:33:12.182Z,32.60
2019-05-07T13:35:42.050Z,29.97
2019-05-07T13:38:48.443Z,31.82
2019-05-07T13:41:38.654Z,32.75
2019-05-07T13:44:13.760Z,32.52
2019-05-07T13:46:44.786Z,32.38
2019-05-07T13:49:12.506Z,34.11
2019-05-07T13:51:41.812Z,33.71
2019-05-07T13:54:12.696Z,37.62
2019-05-07T13:56:41.959Z,35.99
2019-05-07T13:59:13.146Z,35.88
2019-05-07T14:02:00.216Z,32.03
2019-05-07T14:04:28.289Z,33.06
2019-05-07T14:06:58.343Z,33.33
2019-05-07T14:09:26.476Z,35.19
2019-05-07T14:11:54.400Z,36.35
2019-05-07T14:14:22.860Z,38.70
2019-05-07T14:16:53.099Z,38.83
2019-05-07T14:19:22.466Z,36.35
2019-05-07T14:21:52.550Z,36.14
2019-05-07T14:24:22.339Z,37.39
2019-05-07T14:26:52.536Z,38.55
2019-05-07T14:29:24.466Z,37.00
2019-05-07T14:32:02.162Z,38.19
2019-05-07T14:34:35.251Z,35.69
2019-05-07T14:37:12.918Z,36.73
2019-05-07T14:39:42.535Z,36.11
2019-05-07T14:42:14.363Z,36.58
2019-05-07T14:44:49.037Z,40.18
2019-05-07T14:47:18.055Z,36.54
2019-05-07T14:49:47.633Z,35.94
2019-05-07T14:52:22.646Z,40.18
2019-05-07T14:54:45.426Z,36.36
2019-05-07T14:57:13.286Z,36.69
2019-05-07T14:59:42.755Z,36.73
2019-05-07T15:02:12.059Z,37.70
2019-05-07T15:04:41.935Z,36.89
2019-05-07T15:07:12.046Z,38.07
2019-05-07T15:09:41.950Z,39.39
2019-05-07T15:12:12.467Z,36.78
2019-05-07T15:14:42.028Z,37.02
2019-05-07T15:17:18.976Z,37.14
2019-05-07T15:19:47.039Z,38.27
2019-05-07T15:22:46.289Z,37.31
2019-05-07T15:25:03.056Z,37.43
2019-05-07T15:27:32.285Z,37.76
2019-05-07T15:30:02.283Z,39.70
2019-05-07T15:32:32.290Z,38.75
2019-05-07T15:35:02.165Z,41.13
2019-05-07T15:37:32.023Z,40.75
2019-05-07T15:40:02.237Z,37.38
2019-05-07T15:42:29.601Z,38.32
2019-05-07T15:44:57.563Z,38.37
2019-05-07T15:47:31.857Z,39.64
2019-05-07T15:49:59.961Z,40.14
2019-05-07T15:53:02.556Z,41.14
2019-05-07T15:55:30.491Z,40.58
2019-05-07T15:57:58.872Z,39.06
2019-05-07T16:00:27.963Z,38.16
2019-05-07T16:03:02.658Z,38.77
2019-05-07T16:05:31.870Z,39.30
2019-05-07T16:08:01.772Z,40.11
2019-05-07T16:10:32.187Z,40.83
2019-05-07T16:13:00.033Z,40.31
2019-05-07T16:15:28.063Z,40.14
2019-05-07T16:18:00.006Z,40.13
2019-05-07T16:20:28.088Z,40.29
2019-05-07T16:23:12.092Z,40.58
2019-05-07T16:25:29.714Z,39.89
2019-05-07T16:27:57.723Z,39.51
2019-05-07T16:30:25.962Z,39.53
2019-05-07T16:32:55.399Z,39.89
2019-05-07T16:35:23.390Z,40.88
2019-05-07T16:37:52.236Z,40.90
2019-05-07T16:40:22.800Z,41.34
2019-05-07T16:42:52.410Z,40.77
2019-05-07T16:45:20.703Z,41.22
2019-05-07T16:47:48.590Z,43.04
2019-05-07T16:50:16.912Z,41.82
2019-05-07T16:52:45.011Z,42.03
2019-05-07T16:55:13.294Z,42.60
2019-05-07T16:58:03.728Z,44.02
2019-05-07T17:00:53.051Z,44.07
2019-05-07T17:03:25.031Z,44.89
2019-05-07T17:05:52.978Z,44.95
2019-05-07T17:08:32.003Z,45.08
2019-05-07T17:11:00.071Z,45.66
2019-05-07T17:13:28.148Z,46.29
2019-05-07T17:15:57.196Z,45.52
2019-05-07T17:18:26.164Z,46.46
2019-05-07T17:20:54.203Z,46.35
2019-05-07T17:23:22.667Z,48.07
2019-05-07T17:25:52.573Z,48.95
2019-05-07T17:28:22.716Z,48.99
2019-05-07T17:30:52.472Z,49.27
2019-05-07T17:33:22.984Z,49.57
2019-05-07T17:35:52.238Z,50.27
2019-05-07T17:38:20.271Z,50.63
2019-05-07T17:40:48.361Z,50.36
2019-05-07T17:43:16.553Z,51.17
2019-05-07T17:45:44.516Z,51.08
2019-05-07T17:48:12.660Z,51.73
2019-05-07T17:50:58.746Z,51.50
2019-05-07T17:53:28.420Z,51.30
2019-05-07T17:55:56.463Z,52.27
2019-05-07T17:58:24.603Z,53.05
2019-05-07T18:00:56.283Z,52.15
2019-05-07T18:03:32.334Z,52.96
2019-05-07T18:06:02.404Z,52.62
2019-05-07T18:08:32.478Z,52.67
2019-05-07T18:11:02.261Z,53.13
2019-05-07T18:13:32.529Z,52.79
2019-05-07T18:16:07.701Z,53.32
2019-05-07T18:18:35.848Z,53.29
2019-05-07T18:21:05.199Z,53.37
2019-05-07T18:23:34.824Z,54.19
2019-05-07T18:26:03.487Z,53.16
2019-05-07T18:28:32.574Z,53.42
2019-05-07T18:31:02.011Z,53.81
2019-05-07T18:33:44.994Z,53.59
2019-05-07T18:36:13.186Z,53.53
2019-05-07T18:38:42.425Z,54.24
2019-05-07T18:41:12.213Z,54.73
2019-05-07T18:43:42.202Z,53.88
2019-05-07T18:46:12.631Z,54.51
2019-05-07T18:48:42.441Z,54.39
2019-05-07T18:51:12.195Z,54.29
2019-05-07T18:53:42.577Z,54.17
2019-05-07T18:56:12.617Z,54.30
2019-05-07T18:58:42.584Z,54.48
2019-05-07T19:01:11.903Z,55.14
2019-05-07T19:03:41.821Z,55.34
2019-05-07T19:06:10.725Z,55.96
2019-05-07T19:08:38.813Z,56.06
2019-05-07T19:11:06.906Z,56.11
2019-05-07T19:13:34.856Z,56.61
2019-05-07T19:16:03.032Z,55.63
2019-05-07T19:18:32.213Z,56.38
2019-05-07T19:21:00.627Z,55.62
2019-05-07T19:23:29.816Z,55.91
2019-05-07T19:25:57.877Z,55.93
2019-05-07T19:28:25.550Z,55.81
2019-05-07T19:30:53.611Z,56.42
2019-05-07T19:33:26.510Z,55.54
2019-05-07T19:35:52.807Z,55.43
2019-05-07T19:38:20.985Z,56.68
2019-05-07T19:40:48.977Z,56.39
2019-05-07T19:43:16.906Z,56.23
2019-05-07T19:45:45.152Z,56.55
2019-05-07T19:48:13.193Z,56.99
2019-05-07T19:50:42.059Z,57.43
2019-05-07T19:53:12.366Z,57.47
2019-05-07T19:55:57.472Z,57.82
2019-05-07T19:58:25.341Z,59.46
2019-05-07T20:00:56.988Z,57.40
2019-05-07T20:03:23.825Z,58.72
2019-05-07T20:05:52.496Z,58.87
2019-05-07T20:08:22.311Z,58.91
2019-05-07T20:10:56.518Z,59.96
2019-05-07T20:13:27.215Z,60.14
2019-05-07T20:16:05.349Z,61.17
2019-05-07T20:18:33.612Z,61.98
2019-05-07T20:21:02.694Z,61.75
2019-05-07T20:23:32.821Z,62.45
2019-05-07T20:26:02.986Z,63.34
2019-05-07T20:28:32.706Z,63.78
2019-05-07T20:31:00.848Z,63.67
2019-05-07T20:33:28.917Z,64.72
2019-05-07T20:35:56.828Z,63.44
2019-05-07T20:38:24.867Z,64.30
2019-05-07T20:40:52.891Z,64.53
2019-05-07T20:43:22.990Z,64.85
2019-05-07T20:45:51.865Z,65.76
2019-05-07T20:48:22.691Z,65.86
2019-05-07T20:50:52.083Z,66.40
2019-05-07T20:53:39.387Z,67.22
2019-05-07T20:56:07.271Z,67.58
2019-05-07T20:58:35.296Z,67.94
2019-05-07T21:01:03.174Z,67.91
2019-05-07T21:03:32.465Z,69.04
2019-05-07T21:06:02.274Z,69.26
2019-05-07T21:08:32.090Z,69.52
2019-05-07T21:11:02.509Z,69.28
2019-05-07T21:13:34.142Z,68.92
2019-05-07T21:16:00.418Z,68.89
2019-05-07T21:18:28.661Z,69.73
2019-05-07T21:20:56.839Z,69.83
2019-05-07T21:23:24.741Z,70.33
2019-05-07T21:25:53.215Z,70.55
2019-05-07T21:28:21.409Z,70.23
2019-05-07T21:30:51.947Z,70.00
2019-05-07T21:33:19.339Z,70.64
2019-05-07T21:35:47.426Z,70.72
2019-05-07T21:38:15.375Z,71.04
2019-05-07T21:40:43.373Z,71.52
2019-05-07T21:43:12.297Z,71.62
2019-05-07T21:45:42.303Z,71.51
2019-05-07T21:48:10.212Z,71.69
2019-05-07T21:50:38.323Z,71.87
2019-05-07T21:53:12.228Z,72.54
2019-05-07T21:56:02.192Z,72.84
2019-05-07T21:58:42.962Z,72.85
2019-05-07T22:01:24.575Z,72.55
2019-05-07T22:03:53.374Z,72.92
2019-05-07T22:06:22.770Z,73.50
2019-05-07T22:08:52.527Z,73.38
2019-05-07T22:11:23.065Z,73.98
2019-05-07T22:13:52.772Z,73.86
2019-05-07T22:16:22.172Z,74.60
2019-05-07T22:18:52.201Z,74.57
2019-05-07T22:21:20.256Z,75.17
2019-05-07T22:23:48.123Z,75.33
2019-05-07T22:26:22.235Z,75.27
2019-05-07T22:28:46.343Z,75.21
2019-05-07T22:31:23.326Z,75.71
2019-05-07T22:34:29.004Z,75.39
2019-05-07T22:36:56.989Z,76.27
2019-05-07T22:39:35.944Z,76.71
2019-05-07T22:42:05.626Z,76.92
2019-05-07T22:44:33.720Z,76.86
2019-05-07T22:47:18.137Z,77.57
2019-05-07T22:49:47.150Z,77.55
2019-05-07T22:52:15.011Z,77.82
2019-05-07T22:54:43.126Z,77.84
2019-05-07T22:57:33.374Z,77.60
2019-05-07T23:00:04.504Z,77.44
2019-05-07T23:02:33.302Z,77.55
2019-05-07T23:05:02.901Z,77.58
2019-05-07T23:07:32.886Z,77.14
2019-05-07T23:10:02.834Z,77.90
2019-05-07T23:12:32.642Z,77.94
2019-05-07T23:15:02.754Z,78.58
2019-05-07T23:17:32.546Z,78.73
2019-05-07T23:20:00.153Z,78.55
2019-05-07T23:22:28.107Z,78.85
2019-05-07T23:24:56.093Z,78.87
2019-05-07T23:27:24.268Z,79.42
2019-05-07T23:29:52.931Z,79.66
2019-05-07T23:32:22.217Z,79.98
2019-05-07T23:34:52.574Z,79.50
2019-05-07T23:37:19.781Z,78.89
2019-05-07T23:39:51.848Z,79.12
2019-05-07T23:42:23.333Z,79.84
2019-05-07T23:44:52.398Z,79.34
2019-05-07T23:47:20.229Z,79.71
2019-05-07T23:49:48.255Z,79.07
2019-05-07T23:52:16.141Z,80.03
2019-05-07T23:54:44.665Z,80.02
2019-05-07T23:57:15.342Z,79.73
2019-05-07T23:59:42.694Z,79.95
